Lena, Mississippi
Current Conditions -  °F | °C
As of 5:54 AM on Sunday 21 Dec 2014 (Local Time) from KJAN Reporting Station
Clear Clear  
Wind Chill:   Ceiling: Unl
Heat Index:   Visibility: 10mi
Dew Point:   Wind: 6mph
Humidity: 89%   Direction: 50°NE
Pressure: 30.15"   Gusts: NA
Location:  32.59°N, 89.61°W
Report Text: KJAN 211154Z 05005KT 10SM CLR 03/02 A3015 RMK AO2 SLP209 FIRST AUGMENTED OBSERVATION T00330017 10050 20022 56010
Loading
Personal Weather Stations






























Interactive Weather Map New forecast layout! Learn more

10-Day Weather Forecast

Advertisements
Track Severe Weather on mobile